Dati Storici

Data ora Umidita' aria (%) Temperatura aria (°C) Rad globale (W/m²) Gonioanemometro (°) Tacoanemometro (m/s) Pioggia (mm)
05-11-2012 19:30 80.2 % 14.276 1.691 237.617 0.954 0
05-11-2012 19:20 79.8 % 14.354 1.537 254.467 1.142 0
05-11-2012 19:10 79 % 14.539 1.575 232.022 1.233 0
05-11-2012 19:00 78.2 % 14.769 1.896 224.033 1.86 0
05-11-2012 18:50 77.3 % 14.911 1.764 202.389 2.139 0
05-11-2012 18:40 76.4 % 15.203 1.752 251.715 1.538 0
05-11-2012 18:30 75.2 % 15.127 1.675 227.165 1.238 0
05-11-2012 18:20 73.4 % 15.426 1.623 234.729 1.157 0
05-11-2012 18:10 71.8 % 15.787 2.406 239.222 1.832 0
05-11-2012 18:00 70.4 % 16.065 4.328 239.274 1.854 0
05-11-2012 17:50 69.4 % 16.193 7.495 207.662 3.668 0
05-11-2012 17:40 68.3 % 16.381 13.592 247.793 3.05 0
05-11-2012 17:30 67.1 % 16.662 22.607 197.423 3.041 0
05-11-2012 17:20 66.3 % 16.904 36.179 199.681 2.412 0
05-11-2012 17:10 65.9 % 17.072 44.145 182.996 2.199 0
05-11-2012 17:00 64.4 % 17.122 51.681 197.011 4.603 0
05-11-2012 16:50 64.3 % 17.354 105.258 221.39 2.431 0
05-11-2012 16:40 64 % 17.415 127.957 293.127 2.875 0
05-11-2012 16:30 63.8 % 17.421 149.97 208.723 3.423 0
05-11-2012 16:20 63.9 % 17.446 173.021 202.677 4.39 0

I dati sono presentati in modo automatico a scopo informativo. In seguito a verifica i dati possono subire modifiche o essere invalidati e non riportati negli archivi definitivi.